sensor_id;sensor_type;location;lat;lon;timestamp;P1;durP1;ratioP1;P2;durP2;ratioP2
59314;SDS011;46521;50.160;20.802;2022-10-15T00:08:15;29.88;;;21.15;;
59314;SDS011;46521;50.160;20.802;2022-10-15T00:18:17;30.80;;;20.17;;
59314;SDS011;46521;50.160;20.802;2022-10-15T00:28:18;30.07;;;19.47;;
59314;SDS011;46521;50.160;20.802;2022-10-15T00:38:19;26.73;;;19.13;;
59314;SDS011;46521;50.160;20.802;2022-10-15T00:48:21;29.15;;;19.95;;
59314;SDS011;46521;50.160;20.802;2022-10-15T00:58:22;29.00;;;18.70;;
59314;SDS011;46521;50.160;20.802;2022-10-15T01:08:28;29.17;;;18.27;;
59314;SDS011;46521;50.160;20.802;2022-10-15T01:18:38;27.40;;;17.70;;
59314;SDS011;46521;50.160;20.802;2022-10-15T01:38:55;25.05;;;17.40;;
59314;SDS011;46521;50.160;20.802;2022-10-15T01:49:01;24.80;;;16.35;;
59314;SDS011;46521;50.160;20.802;2022-10-15T01:59:05;25.63;;;17.47;;
59314;SDS011;46521;50.160;20.802;2022-10-15T02:19:31;24.00;;;16.10;;
59314;SDS011;46521;50.160;20.802;2022-10-15T02:29:41;23.70;;;15.28;;
59314;SDS011;46521;50.160;20.802;2022-10-15T02:39:45;20.90;;;14.00;;
59314;SDS011;46521;50.160;20.802;2022-10-15T02:49:46;20.60;;;13.37;;
59314;SDS011;46521;50.160;20.802;2022-10-15T02:59:48;18.10;;;12.90;;
59314;SDS011;46521;50.160;20.802;2022-10-15T03:09:49;21.63;;;13.93;;
59314;SDS011;46521;50.160;20.802;2022-10-15T03:19:50;24.10;;;12.60;;
59314;SDS011;46521;50.160;20.802;2022-10-15T03:29:52;18.53;;;13.00;;
59314;SDS011;46521;50.160;20.802;2022-10-15T03:39:53;19.90;;;13.35;;
59314;SDS011;46521;50.160;20.802;2022-10-15T03:49:55;20.37;;;13.50;;
59314;SDS011;46521;50.160;20.802;2022-10-15T03:59:56;21.90;;;14.45;;
59314;SDS011;46521;50.160;20.802;2022-10-15T04:09:57;18.80;;;12.40;;
59314;SDS011;46521;50.160;20.802;2022-10-15T04:19:59;22.80;;;13.15;;
59314;SDS011;46521;50.160;20.802;2022-10-15T04:30:00;22.70;;;13.90;;
59314;SDS011;46521;50.160;20.802;2022-10-15T04:40:01;19.50;;;13.10;;
59314;SDS011;46521;50.160;20.802;2022-10-15T04:50:04;19.87;;;12.97;;
59314;SDS011;46521;50.160;20.802;2022-10-15T05:00:06;22.10;;;12.95;;
59314;SDS011;46521;50.160;20.802;2022-10-15T05:10:08;20.03;;;13.20;;
59314;SDS011;46521;50.160;20.802;2022-10-15T05:20:10;21.40;;;14.60;;
59314;SDS011;46521;50.160;20.802;2022-10-15T05:30:11;21.00;;;14.80;;
59314;SDS011;46521;50.160;20.802;2022-10-15T05:40:12;17.63;;;12.70;;
59314;SDS011;46521;50.160;20.802;2022-10-15T05:50:14;22.23;;;13.57;;
59314;SDS011;46521;50.160;20.802;2022-10-15T06:00:15;20.70;;;13.00;;
59314;SDS011;46521;50.160;20.802;2022-10-15T06:10:17;24.00;;;14.50;;
59314;SDS011;46521;50.160;20.802;2022-10-15T06:20:18;20.77;;;14.33;;
59314;SDS011;46521;50.160;20.802;2022-10-15T06:30:20;22.45;;;15.85;;
59314;SDS011;46521;50.160;20.802;2022-10-15T06:40:21;25.57;;;16.37;;
59314;SDS011;46521;50.160;20.802;2022-10-15T06:50:23;24.80;;;14.40;;
59314;SDS011;46521;50.160;20.802;2022-10-15T07:00:24;22.05;;;14.55;;
59314;SDS011;46521;50.160;20.802;2022-10-15T07:10:27;20.93;;;15.10;;
59314;SDS011;46521;50.160;20.802;2022-10-15T07:20:29;21.37;;;14.37;;
59314;SDS011;46521;50.160;20.802;2022-10-15T07:30:32;19.05;;;14.43;;
59314;SDS011;46521;50.160;20.802;2022-10-15T07:40:33;20.60;;;13.30;;
59314;SDS011;46521;50.160;20.802;2022-10-15T07:50:35;19.40;;;14.15;;
59314;SDS011;46521;50.160;20.802;2022-10-15T08:00:36;22.00;;;14.80;;
59314;SDS011;46521;50.160;20.802;2022-10-15T08:10:37;20.08;;;13.83;;
59314;SDS011;46521;50.160;20.802;2022-10-15T08:20:39;18.80;;;14.15;;
59314;SDS011;46521;50.160;20.802;2022-10-15T08:30:40;19.40;;;14.43;;
59314;SDS011;46521;50.160;20.802;2022-10-15T08:40:45;26.57;;;17.17;;
59314;SDS011;46521;50.160;20.802;2022-10-15T08:51:11;21.90;;;13.10;;
59314;SDS011;46521;50.160;20.802;2022-10-15T09:01:22;19.33;;;13.43;;
59314;SDS011;46521;50.160;20.802;2022-10-15T09:21:58;19.50;;;14.67;;
59314;SDS011;46521;50.160;20.802;2022-10-15T09:32:04;18.80;;;14.20;;
59314;SDS011;46521;50.160;20.802;2022-10-15T10:02:34;19.93;;;13.10;;
59314;SDS011;46521;50.160;20.802;2022-10-15T10:12:36;18.17;;;13.50;;
59314;SDS011;46521;50.160;20.802;2022-10-15T10:22:56;18.73;;;13.07;;
59314;SDS011;46521;50.160;20.802;2022-10-15T10:43:36;18.10;;;13.20;;
59314;SDS011;46521;50.160;20.802;2022-10-15T10:53:43;18.33;;;13.43;;
59314;SDS011;46521;50.160;20.802;2022-10-15T11:04:03;17.00;;;12.57;;
59314;SDS011;46521;50.160;20.802;2022-10-15T11:14:08;16.77;;;12.47;;
59314;SDS011;46521;50.160;20.802;2022-10-15T11:35:04;15.35;;;10.90;;
59314;SDS011;46521;50.160;20.802;2022-10-15T11:55:40;15.40;;;10.30;;
59314;SDS011;46521;50.160;20.802;2022-10-15T12:06:30;15.23;;;10.50;;
59314;SDS011;46521;50.160;20.802;2022-10-15T12:26:36;15.90;;;11.85;;
59314;SDS011;46521;50.160;20.802;2022-10-15T12:36:37;13.57;;;9.87;;
59314;SDS011;46521;50.160;20.802;2022-10-15T12:46:39;12.45;;;9.85;;
59314;SDS011;46521;50.160;20.802;2022-10-15T12:56:41;13.95;;;9.85;;
59314;SDS011;46521;50.160;20.802;2022-10-15T13:06:42;13.83;;;9.08;;
59314;SDS011;46521;50.160;20.802;2022-10-15T13:16:46;14.10;;;9.50;;
59314;SDS011;46521;50.160;20.802;2022-10-15T13:26:48;12.50;;;8.60;;
59314;SDS011;46521;50.160;20.802;2022-10-15T13:36:51;12.45;;;7.80;;
59314;SDS011;46521;50.160;20.802;2022-10-15T13:46:54;15.20;;;9.00;;
59314;SDS011;46521;50.160;20.802;2022-10-15T13:56:59;13.35;;;9.15;;
59314;SDS011;46521;50.160;20.802;2022-10-15T14:07:03;13.25;;;8.98;;
59314;SDS011;46521;50.160;20.802;2022-10-15T14:17:21;16.78;;;12.33;;
59314;SDS011;46521;50.160;20.802;2022-10-15T14:27:24;51.10;;;35.65;;
59314;SDS011;46521;50.160;20.802;2022-10-15T14:37:28;32.30;;;16.80;;
59314;SDS011;46521;50.160;20.802;2022-10-15T14:47:30;21.50;;;13.50;;
59314;SDS011;46521;50.160;20.802;2022-10-15T14:57:37;24.63;;;16.03;;
59314;SDS011;46521;50.160;20.802;2022-10-15T15:07:40;20.20;;;14.20;;
59314;SDS011;46521;50.160;20.802;2022-10-15T15:17:41;40.75;;;25.30;;
59314;SDS011;46521;50.160;20.802;2022-10-15T15:27:43;22.77;;;14.90;;
59314;SDS011;46521;50.160;20.802;2022-10-15T15:37:44;20.23;;;14.23;;
59314;SDS011;46521;50.160;20.802;2022-10-15T15:47:45;27.10;;;17.65;;
59314;SDS011;46521;50.160;20.802;2022-10-15T15:57:47;20.15;;;13.35;;
59314;SDS011;46521;50.160;20.802;2022-10-15T16:07:48;32.55;;;18.05;;
59314;SDS011;46521;50.160;20.802;2022-10-15T16:17:49;28.60;;;20.95;;
59314;SDS011;46521;50.160;20.802;2022-10-15T16:27:51;24.40;;;16.50;;
59314;SDS011;46521;50.160;20.802;2022-10-15T16:37:52;17.50;;;12.50;;
59314;SDS011;46521;50.160;20.802;2022-10-15T16:47:55;27.65;;;17.20;;
59314;SDS011;46521;50.160;20.802;2022-10-15T16:57:57;28.93;;;19.27;;
59314;SDS011;46521;50.160;20.802;2022-10-15T17:07:58;32.23;;;22.48;;
59314;SDS011;46521;50.160;20.802;2022-10-15T17:17:59;34.40;;;21.95;;
59314;SDS011;46521;50.160;20.802;2022-10-15T17:28:01;29.13;;;18.80;;
59314;SDS011;46521;50.160;20.802;2022-10-15T17:38:02;31.20;;;19.65;;
59314;SDS011;46521;50.160;20.802;2022-10-15T17:48:04;31.03;;;20.70;;
59314;SDS011;46521;50.160;20.802;2022-10-15T17:58:06;30.17;;;19.17;;
59314;SDS011;46521;50.160;20.802;2022-10-15T18:08:07;28.93;;;18.47;;
59314;SDS011;46521;50.160;20.802;2022-10-15T18:18:09;34.13;;;20.87;;
59314;SDS011;46521;50.160;20.802;2022-10-15T18:28:11;29.40;;;18.75;;
59314;SDS011;46521;50.160;20.802;2022-10-15T18:38:13;30.33;;;19.40;;
59314;SDS011;46521;50.160;20.802;2022-10-15T18:48:16;27.88;;;19.00;;
59314;SDS011;46521;50.160;20.802;2022-10-15T18:58:17;26.50;;;17.50;;
59314;SDS011;46521;50.160;20.802;2022-10-15T19:08:18;25.10;;;16.30;;
59314;SDS011;46521;50.160;20.802;2022-10-15T19:18:20;25.45;;;16.70;;
59314;SDS011;46521;50.160;20.802;2022-10-15T19:28:21;23.10;;;16.20;;
59314;SDS011;46521;50.160;20.802;2022-10-15T19:38:23;23.50;;;16.03;;
59314;SDS011;46521;50.160;20.802;2022-10-15T19:48:25;22.20;;;15.20;;
59314;SDS011;46521;50.160;20.802;2022-10-15T19:58:27;23.85;;;14.60;;
59314;SDS011;46521;50.160;20.802;2022-10-15T20:08:29;22.50;;;14.50;;
59314;SDS011;46521;50.160;20.802;2022-10-15T20:18:31;20.83;;;14.10;;
59314;SDS011;46521;50.160;20.802;2022-10-15T20:28:36;22.70;;;15.93;;
59314;SDS011;46521;50.160;20.802;2022-10-15T20:38:39;22.45;;;15.83;;
59314;SDS011;46521;50.160;20.802;2022-10-15T20:48:41;21.55;;;15.00;;
59314;SDS011;46521;50.160;20.802;2022-10-15T20:58:45;21.30;;;15.20;;
59314;SDS011;46521;50.160;20.802;2022-10-15T21:08:47;19.37;;;13.47;;
59314;SDS011;46521;50.160;20.802;2022-10-15T21:18:48;18.35;;;12.70;;
59314;SDS011;46521;50.160;20.802;2022-10-15T21:28:53;19.40;;;13.00;;
59314;SDS011;46521;50.160;20.802;2022-10-15T21:38:56;20.38;;;12.95;;
59314;SDS011;46521;50.160;20.802;2022-10-15T21:49:03;18.80;;;12.43;;
59314;SDS011;46521;50.160;20.802;2022-10-15T21:59:08;19.03;;;12.35;;
59314;SDS011;46521;50.160;20.802;2022-10-15T22:09:10;18.45;;;11.70;;
59314;SDS011;46521;50.160;20.802;2022-10-15T22:19:12;15.90;;;11.35;;
59314;SDS011;46521;50.160;20.802;2022-10-15T22:29:17;18.90;;;12.33;;
59314;SDS011;46521;50.160;20.802;2022-10-15T22:39:20;17.43;;;11.80;;
59314;SDS011;46521;50.160;20.802;2022-10-15T22:49:21;16.75;;;11.80;;
59314;SDS011;46521;50.160;20.802;2022-10-15T22:59:23;16.20;;;10.20;;
59314;SDS011;46521;50.160;20.802;2022-10-15T23:09:24;14.28;;;10.53;;
59314;SDS011;46521;50.160;20.802;2022-10-15T23:19:25;15.45;;;10.20;;
59314;SDS011;46521;50.160;20.802;2022-10-15T23:29:26;20.50;;;10.95;;
59314;SDS011;46521;50.160;20.802;2022-10-15T23:39:28;16.07;;;11.27;;
